Time;durP1;ratioP1;P1;durP2;ratioP2;P2;SDS_P1;SDS_P2;PMS_P1;PMS_P2;Temp;Humidity;BMP_temperature;BMP_pressure;BME280_temperature;BME280_humidity;BME280_pressure;Samples;Min_cycle;Max_cycle;Signal;HPM_P1;HPM_P2
2023/09/08 00:01:48;;;;;;;3.77;3.13;;;;;;;21.59;51.37;101792.47;4966150;28;97322;-61
2023/09/08 00:04:14;;;;;;;3.50;3.30;;;;;;;21.58;51.32;101797.31;4969922;28;97150;-60
2023/09/08 00:06:40;;;;;;;4.27;3.90;;;;;;;21.55;51.46;101790.00;4960281;28;97121;-63
2023/09/08 00:09:06;;;;;;;2.93;2.77;;;;;;;21.52;51.44;101807.88;4956722;28;100490;-61
2023/09/08 00:11:31;;;;;;;3.90;3.50;;;;;;;21.48;51.71;101792.69;4968245;28;97032;-60
2023/09/08 00:13:57;;;;;;;3.10;2.90;;;;;;;21.45;51.79;101790.97;4965624;28;97081;-61
2023/09/08 00:16:22;;;;;;;3.50;3.20;;;;;;;21.42;51.88;101792.06;4964453;28;97250;-61
2023/09/08 00:18:48;;;;;;;7.30;3.30;;;;;;;21.40;51.91;101792.63;4965519;28;96904;-60
2023/09/08 00:21:13;;;;;;;4.60;3.60;;;;;;;21.36;51.99;101780.25;4962434;28;97180;-61
2023/09/08 00:23:38;;;;;;;3.87;3.57;;;;;;;21.36;52.05;101783.03;4963737;28;96601;-61
2023/09/08 00:26:04;;;;;;;3.73;3.43;;;;;;;21.35;52.09;101789.91;4969068;28;96897;-60
2023/09/08 00:28:29;;;;;;;3.50;3.20;;;;;;;21.33;52.08;101786.91;4962980;28;97354;-60
2023/09/08 00:30:54;;;;;;;3.27;3.03;;;;;;;21.32;52.21;101786.16;4964363;28;97182;-61
2023/09/08 00:33:22;;;;;;;4.97;3.17;;;;;;;21.31;52.09;101779.06;4970848;28;97014;-61
2023/09/08 00:35:50;;;;;;;3.20;3.00;;;;;;;21.28;52.09;101774.53;4961719;28;97569;-61
2023/09/08 00:38:15;;;;;;;3.47;3.20;;;;;;;21.25;52.01;101775.59;4964373;28;97030;-61
2023/09/08 00:40:41;;;;;;;3.60;3.30;;;;;;;21.20;52.12;101768.09;4971778;28;97163;-61
2023/09/08 00:43:06;;;;;;;7.97;3.83;;;;;;;21.17;52.18;101774.75;4965646;28;97066;-60
2023/09/08 00:45:36;;;;;;;3.70;3.40;;;;;;;21.15;52.14;101768.94;4966548;28;96980;-61
2023/09/08 00:48:01;;;;;;;3.50;3.20;;;;;;;21.11;52.28;101773.34;4963451;28;98760;-61
2023/09/08 00:50:27;;;;;;;4.90;3.30;;;;;;;21.06;52.60;101774.22;4965222;28;97055;-61
2023/09/08 00:52:52;;;;;;;4.20;3.53;;;;;;;21.01;52.32;101766.66;4966845;28;97075;-61
2023/09/08 00:55:17;;;;;;;3.50;3.20;;;;;;;20.98;52.41;101773.34;4966566;28;96975;-61
2023/09/08 00:57:43;;;;;;;3.97;3.67;;;;;;;20.93;52.45;101770.09;4961212;28;97327;-61
2023/09/08 01:00:09;;;;;;;3.90;3.60;;;;;;;20.90;52.49;101768.38;4961480;28;96793;-60
2023/09/08 01:02:34;;;;;;;3.13;2.90;;;;;;;20.89;52.71;101780.13;4966740;28;96805;-61
2023/09/08 01:05:00;;;;;;;3.53;3.23;;;;;;;20.91;52.75;101783.88;4966828;28;97147;-61
2023/09/08 01:07:29;;;;;;;3.57;3.27;;;;;;;20.96;52.69;101787.09;4966254;28;97766;-61
2023/09/08 01:09:55;;;;;;;4.27;3.67;;;;;;;20.98;52.61;101782.50;4963835;28;97132;-60
2023/09/08 01:12:20;;;;;;;3.30;3.10;;;;;;;20.92;52.48;101788.19;4964297;28;97157;-60
2023/09/08 01:14:46;;;;;;;3.47;3.17;;;;;;;20.87;52.67;101791.09;4963874;28;96732;-61
2023/09/08 01:17:12;;;;;;;3.47;3.20;;;;;;;20.83;52.74;101794.22;4966744;28;97330;-61
2023/09/08 01:19:38;;;;;;;3.20;3.00;;;;;;;20.81;52.91;101785.63;4964863;28;96972;-61
2023/09/08 01:22:09;;;;;;;3.53;3.27;;;;;;;20.76;52.76;101788.50;4964822;28;97319;-61
2023/09/08 01:24:34;;;;;;;3.60;3.30;;;;;;;20.67;52.65;101786.88;4968170;28;97167;-61
2023/09/08 01:27:00;;;;;;;3.93;3.63;;;;;;;20.64;52.93;101792.78;4964219;28;97439;-61
2023/09/08 01:29:26;;;;;;;4.20;3.80;;;;;;;20.62;53.06;101786.97;4970158;28;97266;-61
2023/09/08 01:31:51;;;;;;;4.30;3.90;;;;;;;20.60;52.88;101784.69;4966873;28;97273;-61
2023/09/08 01:34:18;;;;;;;5.00;4.10;;;;;;;20.56;52.89;101781.47;4966804;28;97318;-60
2023/09/08 01:36:45;;;;;;;3.53;3.23;;;;;;;20.51;53.03;101785.13;4964842;28;97459;-61
2023/09/08 01:39:10;;;;;;;3.20;3.00;;;;;;;20.47;52.92;101790.28;4963722;28;99065;-61
2023/09/08 01:41:36;;;;;;;6.50;3.63;;;;;;;20.45;53.16;101783.69;4965497;28;97025;-61
2023/09/08 01:44:07;;;;;;;3.43;3.13;;;;;;;20.39;53.11;101786.59;4963014;28;97237;-61
2023/09/08 01:46:33;;;;;;;3.73;3.30;;;;;;;20.33;53.18;101777.56;4967996;28;97610;-61
2023/09/08 01:48:58;;;;;;;4.10;3.50;;;;;;;20.30;53.23;101775.81;4965518;28;97165;-61
2023/09/08 01:51:23;;;;;;;3.40;3.10;;;;;;;20.27;53.49;101774.09;4966479;28;96894;-61
2023/09/08 01:53:49;;;;;;;4.87;3.53;;;;;;;20.23;53.48;101770.09;4966107;28;96844;-60
2023/09/08 01:56:14;;;;;;;3.37;3.13;;;;;;;20.19;53.41;101767.59;4969098;28;99503;-61
2023/09/08 01:58:39;;;;;;;3.73;3.43;;;;;;;20.13;53.55;101766.94;4968385;28;109377;-61
2023/09/08 02:01:05;;;;;;;3.97;3.43;;;;;;;20.08;53.78;101764.97;4968115;28;99302;-60
2023/09/08 02:03:32;;;;;;;4.93;3.33;;;;;;;20.07;53.57;101763.47;4969745;28;97028;-61
2023/09/08 02:05:57;;;;;;;4.77;3.40;;;;;;;20.05;53.85;101763.97;4972531;28;97332;-60
2023/09/08 02:08:23;;;;;;;3.70;3.40;;;;;;;20.02;53.60;101758.72;4969528;28;98724;-60
2023/09/08 02:10:48;;;;;;;4.10;3.70;;;;;;;19.96;53.72;101755.25;4967916;28;98017;-60
2023/09/08 02:13:13;;;;;;;6.23;4.23;;;;;;;19.92;53.96;101761.16;4970593;28;96934;-61
2023/09/08 02:15:38;;;;;;;4.03;3.73;;;;;;;19.92;54.12;101754.81;4966689;28;98313;-61
2023/09/08 02:18:04;;;;;;;4.63;3.53;;;;;;;19.90;53.82;101749.75;4961512;28;110452;-61
2023/09/08 02:20:29;;;;;;;3.83;3.53;;;;;;;19.87;54.09;101752.84;4966415;28;97644;-61
2023/09/08 02:22:55;;;;;;;6.50;3.40;;;;;;;19.85;53.88;101761.03;4966597;28;97230;-61
2023/09/08 02:25:22;;;;;;;7.07;3.90;;;;;;;19.82;54.07;101774.00;4967885;28;97324;-60
2023/09/08 02:27:47;;;;;;;3.53;3.23;;;;;;;19.81;54.14;101752.19;4968135;28;97186;-61
2023/09/08 02:30:13;;;;;;;3.63;3.33;;;;;;;19.78;54.06;101747.66;4965715;28;97169;-61
2023/09/08 02:32:38;;;;;;;4.17;3.87;;;;;;;19.74;54.06;101747.22;4964790;28;97054;-61
2023/09/08 02:35:04;;;;;;;4.00;3.60;;;;;;;19.71;54.22;101746.22;4964671;28;96758;-61
2023/09/08 02:37:29;;;;;;;3.67;3.37;;;;;;;19.69;54.18;101745.25;4969353;28;96852;-60
2023/09/08 02:39:54;;;;;;;4.30;3.80;;;;;;;19.65;54.29;101742.00;4968172;28;97163;-61
2023/09/08 02:42:20;;;;;;;3.97;3.00;;;;;;;19.61;54.25;101735.97;4967148;28;98256;-60
2023/09/08 02:44:45;;;;;;;3.90;3.57;;;;;;;19.57;54.40;101741.84;4968362;28;97422;-61
2023/09/08 02:47:10;;;;;;;4.00;3.40;;;;;;;19.57;54.33;101741.84;4965942;28;97341;-61
2023/09/08 02:49:36;;;;;;;4.33;3.93;;;;;;;19.57;54.54;101741.13;4967655;28;97607;-61
2023/09/08 02:52:01;;;;;;;3.60;3.17;;;;;;;19.55;54.47;101740.91;4963840;28;96976;-60
2023/09/08 02:54:26;;;;;;;3.30;3.10;;;;;;;19.51;54.51;101755.13;4968229;28;97282;-61
2023/09/08 02:56:52;;;;;;;4.10;3.30;;;;;;;19.49;54.47;101742.97;4965603;28;96651;-60
2023/09/08 02:59:17;;;;;;;4.20;3.90;;;;;;;19.42;54.49;101741.56;4965851;28;97231;-61
2023/09/08 03:01:42;;;;;;;4.03;3.53;;;;;;;19.37;54.65;101756.34;4967243;28;97052;-61
2023/09/08 03:04:08;;;;;;;5.90;3.87;;;;;;;19.36;54.78;101752.03;4966400;28;97244;-61
2023/09/08 03:06:34;;;;;;;5.23;3.77;;;;;;;19.32;54.58;101762.72;4966322;28;98675;-61
2023/09/08 03:09:00;;;;;;;4.27;3.90;;;;;;;19.23;54.75;101752.69;4968809;28;97204;-61
2023/09/08 03:11:25;;;;;;;4.10;3.80;;;;;;;19.19;54.78;101757.06;4968865;28;97140;-61
2023/09/08 03:13:50;;;;;;;4.07;3.70;;;;;;;19.17;54.74;101749.22;4967490;28;96805;-61
2023/09/08 03:16:16;;;;;;;7.17;4.00;;;;;;;19.12;54.86;101752.81;4964742;28;97077;-61
2023/09/08 03:18:42;;;;;;;4.00;3.70;;;;;;;19.10;55.04;101755.38;4965455;28;97327;-61
2023/09/08 03:21:10;;;;;;;4.33;3.93;;;;;;;19.07;55.13;101753.63;4964962;28;96667;-61
2023/09/08 03:23:37;;;;;;;4.03;3.73;;;;;;;19.04;55.11;101748.34;4966935;28;97873;-60
2023/09/08 03:26:02;;;;;;;3.47;3.20;;;;;;;18.95;55.13;101746.69;4969666;28;97157;-61
2023/09/08 03:28:28;;;;;;;5.70;3.80;;;;;;;18.91;55.20;101745.47;4968818;28;96656;-61
2023/09/08 03:30:53;;;;;;;4.50;3.90;;;;;;;18.89;55.38;101748.78;4964578;28;97198;-61
2023/09/08 03:33:18;;;;;;;5.10;4.60;;;;;;;18.90;55.31;101741.91;4965688;28;97346;-61
2023/09/08 03:35:44;;;;;;;3.90;3.60;;;;;;;18.89;55.37;101740.41;4967972;28;97156;-61
2023/09/08 03:38:09;;;;;;;4.60;4.10;;;;;;;18.86;55.17;101735.13;4962729;28;97069;-61
2023/09/08 03:40:35;;;;;;;5.00;3.57;;;;;;;18.85;55.28;101744.78;4967589;28;97142;-61
2023/09/08 03:43:00;;;;;;;4.30;3.90;;;;;;;18.81;55.44;101747.09;4965217;28;97513;-62
2023/09/08 03:45:25;;;;;;;5.23;4.60;;;;;;;18.77;55.40;101744.59;4963505;28;108152;-61
2023/09/08 03:47:51;;;;;;;4.10;3.80;;;;;;;18.73;55.43;101740.59;4970523;28;96782;-61
2023/09/08 03:50:16;;;;;;;5.40;4.27;;;;;;;18.70;55.66;101745.16;4970052;28;97222;-61
2023/09/08 03:52:41;;;;;;;3.87;3.57;;;;;;;18.70;55.62;101734.78;4966992;28;97875;-61
2023/09/08 03:55:07;;;;;;;3.90;3.60;;;;;;;18.71;55.44;101732.75;4966292;28;97070;-61
2023/09/08 03:57:32;;;;;;;4.27;3.87;;;;;;;18.71;55.26;101738.31;4969829;28;97288;-61
2023/09/08 03:59:57;;;;;;;3.53;3.23;;;;;;;18.66;55.46;101734.31;4966460;28;97216;-61
2023/09/08 04:02:23;;;;;;;4.13;3.83;;;;;;;18.59;55.44;101734.88;4968419;28;96899;-61
2023/09/08 04:04:48;;;;;;;4.50;4.10;;;;;;;18.54;55.67;101732.91;4965601;28;100989;-61
2023/09/08 04:07:13;;;;;;;4.60;3.97;;;;;;;18.53;55.71;101727.84;4961349;28;97237;-61
2023/09/08 04:09:39;;;;;;;4.60;4.20;;;;;;;18.50;55.81;101726.13;4966381;28;96844;-61
2023/09/08 04:12:05;;;;;;;4.47;4.03;;;;;;;18.50;55.64;101732.44;4965713;28;96931;-61
2023/09/08 04:14:33;;;;;;;4.60;3.67;;;;;;;18.48;55.80;101723.84;4967839;28;97249;-61
2023/09/08 04:16:58;;;;;;;4.20;3.80;;;;;;;18.46;55.81;101725.66;4964768;28;97086;-61
2023/09/08 04:19:23;;;;;;;4.20;3.80;;;;;;;18.40;55.84;101731.25;4965313;28;97448;-61
2023/09/08 04:21:48;;;;;;;4.33;4.03;;;;;;;18.37;56.00;101734.34;4962292;28;97436;-61
2023/09/08 04:24:14;;;;;;;4.80;4.33;;;;;;;18.32;56.06;101729.56;4964145;28;110185;-61
2023/09/08 04:26:39;;;;;;;5.13;4.53;;;;;;;18.28;56.08;101727.03;4965293;28;97181;-61
2023/09/08 04:29:04;;;;;;;4.50;4.10;;;;;;;18.25;56.05;101721.75;4965963;28;97692;-61
2023/09/08 04:31:30;;;;;;;4.40;3.83;;;;;;;18.19;56.09;101724.59;4965785;28;97204;-61
2023/09/08 04:33:55;;;;;;;3.80;3.50;;;;;;;18.18;56.07;101720.31;4967355;28;100591;-61
2023/09/08 04:36:20;;;;;;;3.90;3.60;;;;;;;18.16;56.00;101722.09;4966089;28;97313;-61
2023/09/08 04:38:46;;;;;;;4.30;4.00;;;;;;;18.13;56.11;101723.88;4967230;28;97020;-61
2023/09/08 04:41:11;;;;;;;4.53;4.10;;;;;;;18.13;55.99;101732.25;4967484;28;97350;-61
2023/09/08 04:43:36;;;;;;;4.50;4.10;;;;;;;18.14;56.28;101733.00;4969993;28;97159;-61
2023/09/08 04:46:04;;;;;;;4.43;4.03;;;;;;;18.10;56.01;101722.16;4968384;28;97067;-61
2023/09/08 04:48:30;;;;;;;4.17;3.80;;;;;;;18.04;56.06;101718.66;4966363;28;97420;-60
2023/09/08 04:50:56;;;;;;;5.23;3.40;;;;;;;17.99;56.36;101713.88;4965695;28;97827;-61
2023/09/08 04:53:21;;;;;;;4.20;3.77;;;;;;;17.97;56.44;101714.38;4966116;28;97316;-62
2023/09/08 04:55:47;;;;;;;3.93;3.63;;;;;;;17.97;56.40;101713.66;4963075;28;96888;-61
2023/09/08 04:58:12;;;;;;;4.13;3.73;;;;;;;17.95;56.40;101714.16;4966626;28;97484;-61
2023/09/08 05:00:39;;;;;;;4.37;4.00;;;;;;;17.94;56.39;101715.44;4966561;28;97763;-61
2023/09/08 05:03:05;;;;;;;4.70;4.30;;;;;;;17.93;56.45;101716.69;4965961;28;98059;-61
2023/09/08 05:05:30;;;;;;;3.87;3.57;;;;;;;17.93;56.34;101719.47;4967165;28;97174;-61
2023/09/08 05:07:56;;;;;;;3.87;3.57;;;;;;;17.93;56.48;101719.47;4966826;28;97212;-61
2023/09/08 05:10:22;;;;;;;4.27;3.90;;;;;;;17.93;56.61;101716.69;4965513;28;100640;-61
2023/09/08 05:12:49;;;;;;;3.70;3.40;;;;;;;17.91;56.49;101722.03;4967246;28;97234;-61
2023/09/08 05:15:16;;;;;;;3.83;3.53;;;;;;;17.88;56.71;101723.06;4969822;28;97183;-61
2023/09/08 05:17:41;;;;;;;4.23;3.83;;;;;;;17.87;56.80;101721.56;4967372;28;96988;-61
2023/09/08 05:20:07;;;;;;;3.77;3.50;;;;;;;17.86;56.81;101727.66;4966421;28;102859;-61
2023/09/08 05:22:32;;;;;;;4.40;4.00;;;;;;;17.84;56.98;101724.63;4968364;28;97111;-61
2023/09/08 05:24:58;;;;;;;4.10;3.80;;;;;;;17.84;56.98;101719.78;4970323;28;96699;-61
2023/09/08 05:27:23;;;;;;;4.30;3.97;;;;;;;17.85;57.02;101715.75;4963517;28;97056;-61
2023/09/08 05:29:49;;;;;;;6.80;3.67;;;;;;;17.81;56.93;101718.06;4963243;28;97384;-61
2023/09/08 05:32:14;;;;;;;4.93;4.53;;;;;;;17.82;57.07;101716.78;4969735;28;97672;-61
2023/09/08 05:34:39;;;;;;;4.03;3.60;;;;;;;17.86;57.06;101716.50;4969880;28;99643;-61
2023/09/08 05:37:05;;;;;;;4.60;4.20;;;;;;;17.86;57.01;101717.28;4967110;28;97340;-61
2023/09/08 05:39:30;;;;;;;4.37;3.67;;;;;;;17.87;57.23;101707.63;4969189;28;96937;-61
2023/09/08 05:41:56;;;;;;;5.57;3.70;;;;;;;17.87;57.23;101716.00;4970167;28;97777;-61
2023/09/08 05:44:21;;;;;;;4.40;4.00;;;;;;;17.89;57.32;101712.69;4966525;28;96734;-61
2023/09/08 05:46:47;;;;;;;4.13;3.80;;;;;;;17.91;57.26;101712.91;4968844;28;97162;-61
2023/09/08 05:49:13;;;;;;;3.80;3.50;;;;;;;17.95;57.25;101708.56;4971705;28;97445;-61
2023/09/08 05:51:39;;;;;;;3.70;3.47;;;;;;;18.00;57.34;101717.44;4970967;28;97165;-61
2023/09/08 05:54:05;;;;;;;9.13;4.30;;;;;;;18.04;57.33;101718.66;4970467;28;97808;-61
2023/09/08 05:56:31;;;;;;;4.50;3.67;;;;;;;18.08;57.46;101718.38;4972389;28;97447;-61
2023/09/08 05:58:57;;;;;;;3.87;3.50;;;;;;;18.11;57.49;101717.34;4970509;28;97004;-61
2023/09/08 06:01:24;;;;;;;4.33;3.83;;;;;;;18.16;57.23;101717.28;4968014;28;97279;-61
2023/09/08 06:03:49;;;;;;;3.73;3.40;;;;;;;18.20;57.44;101714.97;4974265;28;96802;-61
2023/09/08 06:06:14;;;;;;;4.70;3.60;;;;;;;18.23;57.24;101713.19;4971636;28;97124;-61
2023/09/08 06:08:40;;;;;;;4.13;3.60;;;;;;;18.26;57.66;101714.94;4970143;28;97351;-61
2023/09/08 06:11:05;;;;;;;4.43;3.57;;;;;;;18.29;57.61;101719.44;4971028;28;96760;-61
2023/09/08 06:13:30;;;;;;;7.00;4.00;;;;;;;18.33;57.47;101714.34;4968188;28;97095;-61
2023/09/08 06:15:56;;;;;;;4.90;4.03;;;;;;;18.39;57.68;101715.06;4967847;28;97230;-61
2023/09/08 06:18:21;;;;;;;4.17;3.73;;;;;;;18.42;57.63;101725.16;4969014;28;110998;-61
2023/09/08 06:20:47;;;;;;;4.40;3.50;;;;;;;18.45;57.51;101724.91;4967155;28;99175;-61
2023/09/08 06:23:13;;;;;;;3.60;3.40;;;;;;;18.51;57.85;101722.06;4970695;28;97367;-61
2023/09/08 06:25:40;;;;;;;3.87;3.57;;;;;;;18.56;57.72;101721.25;4969388;28;96916;-61
2023/09/08 06:28:05;;;;;;;5.03;4.07;;;;;;;18.59;57.89;101718.16;4966523;28;97800;-61
2023/09/08 06:30:31;;;;;;;4.53;4.07;;;;;;;18.66;57.92;101717.59;4970296;28;97172;-61
2023/09/08 06:32:56;;;;;;;9.67;3.60;;;;;;;18.75;58.03;101722.06;4969380;28;97398;-61
2023/09/08 06:35:21;;;;;;;4.40;4.00;;;;;;;18.82;57.82;101718.69;4969972;28;96898;-62
2023/09/08 06:37:47;;;;;;;4.70;3.93;;;;;;;18.90;58.07;101724.41;4969707;28;96932;-61
2023/09/08 06:40:12;;;;;;;3.90;3.60;;;;;;;19.01;58.11;101719.47;4969534;28;97173;-61
2023/09/08 06:42:37;;;;;;;5.63;4.17;;;;;;;19.10;57.97;101718.34;4962084;28;97311;-61
2023/09/08 06:45:03;;;;;;;4.13;3.73;;;;;;;19.18;57.94;101706.06;4967648;28;96992;-61
2023/09/08 06:47:28;;;;;;;5.00;4.43;;;;;;;19.24;58.09;101728.34;4964893;28;97326;-61
2023/09/08 06:49:54;;;;;;;5.80;4.90;;;;;;;19.36;58.17;101721.34;4965346;28;98795;-61
2023/09/08 06:52:19;;;;;;;6.00;4.53;;;;;;;19.44;58.03;101719.44;4968456;28;96670;-61
2023/09/08 06:54:47;;;;;;;4.73;4.23;;;;;;;19.54;58.10;101715.00;4969045;28;97056;-61
2023/09/08 06:57:13;;;;;;;4.10;3.70;;;;;;;19.61;58.08;101719.22;4967182;28;97198;-61
2023/09/08 06:59:38;;;;;;;5.73;4.17;;;;;;;19.67;57.88;101722.69;4970569;28;97218;-61
2023/09/08 07:02:04;;;;;;;4.90;3.70;;;;;;;19.80;58.08;101723.50;4966568;28;97111;-61
2023/09/08 07:04:30;;;;;;;5.23;4.37;;;;;;;19.90;57.96;101730.19;4967380;28;97156;-61
2023/09/08 07:06:55;;;;;;;5.00;4.50;;;;;;;20.00;58.16;101731.31;4967588;28;99421;-61
2023/09/08 07:09:20;;;;;;;8.80;4.47;;;;;;;20.07;58.15;101732.75;4966115;28;99252;-61
2023/09/08 07:11:46;;;;;;;5.40;4.57;;;;;;;20.14;57.94;101730.06;4970237;28;97462;-61
2023/09/08 07:14:12;;;;;;;6.40;4.77;;;;;;;20.25;57.84;101737.53;4971727;28;96856;-62
2023/09/08 07:16:37;;;;;;;5.17;4.33;;;;;;;20.36;58.03;101725.41;4967096;28;97366;-61
2023/09/08 07:19:03;;;;;;;5.07;3.93;;;;;;;20.45;57.81;101728.53;4967729;28;97176;-61
2023/09/08 07:21:28;;;;;;;6.30;4.27;;;;;;;20.52;57.74;101724.34;4971027;28;97432;-61
2023/09/08 07:23:56;;;;;;;4.93;4.43;;;;;;;20.63;57.77;101735.34;4970945;28;97259;-61
2023/09/08 07:26:22;;;;;;;4.70;4.30;;;;;;;20.72;57.85;101729.31;4969070;28;96999;-61
2023/09/08 07:28:48;;;;;;;4.67;4.27;;;;;;;20.83;57.97;101735.47;4965943;28;97056;-61
2023/09/08 07:31:14;;;;;;;6.87;5.10;;;;;;;20.95;57.62;101735.25;4967210;28;97336;-62
2023/09/08 07:33:39;;;;;;;4.90;4.40;;;;;;;21.05;57.67;101730.75;4966530;28;97387;-61
2023/09/08 07:36:06;;;;;;;6.23;4.90;;;;;;;21.16;57.47;101734.06;4971390;28;97386;-61
2023/09/08 07:38:31;;;;;;;5.10;4.20;;;;;;;21.31;57.44;101730.72;4969905;28;97187;-60
2023/09/08 07:40:59;;;;;;;4.77;4.23;;;;;;;21.40;57.44;101733.06;4956857;28;97263;-61
2023/09/08 07:43:25;;;;;;;4.90;4.47;;;;;;;21.50;57.39;101734.09;4965131;28;97255;-61
2023/09/08 07:45:50;;;;;;;3.90;3.50;;;;;;;21.57;57.31;101733.44;4965566;28;97379;-61
2023/09/08 07:48:15;;;;;;;3.97;3.67;;;;;;;21.69;57.13;101725.53;4960778;28;104925;-61
2023/09/08 07:50:41;;;;;;;4.50;4.10;;;;;;;21.80;57.03;101720.41;4966009;28;101418;-61
2023/09/08 07:53:06;;;;;;;5.03;4.53;;;;;;;21.90;56.96;101721.50;4962994;28;97074;-61
2023/09/08 07:55:31;;;;;;;5.97;4.17;;;;;;;22.00;56.76;101722.50;4964576;28;97305;-61
2023/09/08 07:57:57;;;;;;;4.97;3.90;;;;;;;22.11;56.85;101716.63;4965402;28;97696;-61
2023/09/08 08:00:23;;;;;;;6.00;3.80;;;;;;;22.26;56.55;101724.41;4966330;28;96736;-61
2023/09/08 08:02:53;;;;;;;5.03;4.37;;;;;;;22.35;56.41;101716.25;4956219;28;97472;-61
2023/09/08 08:05:18;;;;;;;5.17;4.67;;;;;;;22.48;56.13;101712.59;4968088;28;97886;-62
2023/09/08 08:07:44;;;;;;;6.90;4.00;;;;;;;22.57;56.22;101725.38;4964180;28;99908;-61
2023/09/08 08:10:10;;;;;;;5.83;4.60;;;;;;;22.64;56.22;101713.50;4964689;28;96951;-61
2023/09/08 08:12:36;;;;;;;5.37;4.10;;;;;;;22.77;56.19;101710.59;4970243;28;97156;-61
2023/09/08 08:15:01;;;;;;;5.43;4.40;;;;;;;22.87;56.09;101717.94;4971391;28;98141;-61
2023/09/08 08:17:29;;;;;;;5.70;4.50;;;;;;;22.98;56.02;101709.19;4967034;28;98760;-61
2023/09/08 08:19:55;;;;;;;4.43;4.03;;;;;;;23.11;55.96;101706.25;4967654;28;97138;-61
2023/09/08 08:22:20;;;;;;;5.87;4.30;;;;;;;23.28;55.70;101716.25;4971923;28;96867;-61
2023/09/08 08:24:46;;;;;;;4.87;4.27;;;;;;;23.39;55.86;101710.34;4965925;28;97660;-62
2023/09/08 08:27:11;;;;;;;4.73;4.20;;;;;;;23.55;55.37;101712.63;4968066;28;97757;-60
2023/09/08 08:29:37;;;;;;;4.67;4.27;;;;;;;23.71;55.29;101711.34;4968303;28;97139;-60
2023/09/08 08:32:02;;;;;;;4.63;4.20;;;;;;;23.91;55.45;101715.31;4967219;28;97034;-61
2023/09/08 08:34:28;;;;;;;3.97;3.53;;;;;;;24.07;55.36;101714.03;4965408;28;97153;-60
2023/09/08 08:36:53;;;;;;;4.70;4.03;;;;;;;24.25;54.87;101715.72;4965610;28;97768;-61
2023/09/08 08:39:18;;;;;;;5.23;4.30;;;;;;;24.44;54.78;101715.34;4969436;28;97236;-61
2023/09/08 08:41:44;;;;;;;6.00;4.00;;;;;;;24.62;54.61;101713.44;4966535;28;96926;-61
2023/09/08 08:44:09;;;;;;;4.40;4.00;;;;;;;24.84;54.36;101709.84;4965181;28;97070;-60
2023/09/08 08:46:40;;;;;;;4.73;4.33;;;;;;;25.01;54.24;101704.38;4968600;28;97449;-60
2023/09/08 08:49:06;;;;;;;5.00;4.30;;;;;;;25.14;53.85;101702.03;4964314;28;96736;-61
2023/09/08 08:51:32;;;;;;;4.00;3.60;;;;;;;25.31;53.49;101696.50;4966447;28;96729;-60
2023/09/08 08:53:58;;;;;;;4.10;3.70;;;;;;;25.48;53.52;101695.13;4969586;28;97406;-60
2023/09/08 08:56:23;;;;;;;4.70;4.30;;;;;;;25.64;53.48;101691.63;4970376;28;96784;-61
2023/09/08 08:58:50;;;;;;;3.93;3.60;;;;;;;25.79;52.84;101699.25;4966309;28;96917;-62
2023/09/08 09:01:16;;;;;;;4.47;4.03;;;;;;;25.96;52.42;101693.69;4963267;28;97024;-60
2023/09/08 09:03:42;;;;;;;4.10;3.80;;;;;;;26.12;52.04;101686.63;4960611;28;97876;-61
2023/09/08 09:06:10;;;;;;;3.90;3.57;;;;;;;26.25;52.15;101694.78;4966102;28;97165;-61
2023/09/08 09:08:38;;;;;;;5.20;4.37;;;;;;;26.38;52.02;101685.25;4964210;28;96865;-60
2023/09/08 09:11:04;;;;;;;3.77;3.43;;;;;;;26.53;52.03;101690.75;4964254;28;97324;-60
2023/09/08 09:13:29;;;;;;;3.97;3.67;;;;;;;26.64;51.61;101691.00;4963973;28;97554;-61
2023/09/08 09:16:00;;;;;;;5.20;3.80;;;;;;;26.82;51.10;101691.78;4960949;28;97221;-63
2023/09/08 09:18:26;;;;;;;3.97;3.57;;;;;;;26.96;51.11;101690.09;4961363;28;97112;-61
2023/09/08 09:20:55;;;;;;;4.10;3.80;;;;;;;27.12;50.87;101696.31;4958718;28;96817;-60
2023/09/08 09:23:29;;;;;;;5.00;4.03;;;;;;;27.24;50.45;101706.50;4960905;28;97091;-60
2023/09/08 09:25:54;;;;;;;3.90;3.60;;;;;;;27.37;50.47;101702.56;4962270;28;96939;-60
2023/09/08 09:28:19;;;;;;;4.60;4.20;;;;;;;27.51;50.18;101691.66;4961621;28;97763;-61
2023/09/08 09:30:51;;;;;;;4.40;3.50;;;;;;;27.67;49.87;101690.84;4960237;28;97192;-61
2023/09/08 09:33:17;;;;;;;4.50;4.10;;;;;;;27.78;49.46;101695.97;4959662;28;99674;-61
2023/09/08 09:35:47;;;;;;;4.40;3.43;;;;;;;27.85;48.68;101692.25;4962072;28;97516;-60
2023/09/08 09:38:14;;;;;;;3.70;3.40;;;;;;;27.96;48.94;101694.53;4960071;28;97435;-61
2023/09/08 09:40:39;;;;;;;3.60;3.20;;;;;;;28.06;48.84;101684.03;4960259;28;97439;-60
2023/09/08 09:43:07;;;;;;;3.77;3.40;;;;;;;28.18;48.46;101684.94;4961169;28;97359;-61
2023/09/08 09:45:34;;;;;;;2.90;2.70;;;;;;;28.31;48.27;101686.59;4960901;28;96570;-59
2023/09/08 09:47:59;;;;;;;4.23;3.87;;;;;;;28.43;47.58;101683.94;4960696;28;96900;-60
2023/09/08 09:50:33;;;;;;;3.90;3.50;;;;;;;28.56;47.39;101686.34;4962175;28;97322;-61
2023/09/08 09:53:02;;;;;;;3.90;3.50;;;;;;;28.65;47.45;101688.47;4961669;28;97925;-60
2023/09/08 09:55:28;;;;;;;3.40;3.20;;;;;;;28.75;47.11;101687.13;4960856;28;97210;-60
2023/09/08 09:58:03;;;;;;;3.80;3.50;;;;;;;28.85;46.71;101684.28;4960209;28;97114;-60
2023/09/08 10:00:29;;;;;;;4.70;3.47;;;;;;;28.91;46.91;101691.16;4963364;28;97346;-60
2023/09/08 10:02:55;;;;;;;4.17;3.67;;;;;;;29.00;46.61;101688.91;4956544;28;99859;-60
2023/09/08 10:05:20;;;;;;;3.60;3.30;;;;;;;29.10;46.03;101684.69;4959477;28;97118;-60
2023/09/08 10:07:48;;;;;;;3.70;3.40;;;;;;;29.18;46.20;101679.63;4961836;28;97398;-60
2023/09/08 10:10:14;;;;;;;3.93;3.00;;;;;;;29.22;45.58;101671.44;4960830;28;97541;-60
2023/09/08 10:12:43;;;;;;;5.67;3.03;;;;;;;29.26;45.67;101674.56;4961812;28;97508;-60
2023/09/08 10:15:10;;;;;;;3.70;3.40;;;;;;;29.32;45.09;101663.63;4961612;28;97118;-61
2023/09/08 10:17:37;;;;;;;2.97;2.70;;;;;;;29.39;45.28;101667.66;4964929;28;97247;-60
2023/09/08 10:20:10;;;;;;;3.83;3.17;;;;;;;29.46;44.69;101661.81;4964095;28;98141;-60
2023/09/08 10:22:41;;;;;;;3.40;3.10;;;;;;;29.55;44.67;101654.63;4960859;28;97774;-61
2023/09/08 10:25:08;;;;;;;3.17;2.87;;;;;;;29.62;44.66;101656.50;4959756;28;97388;-61
2023/09/08 10:27:35;;;;;;;3.87;2.90;;;;;;;29.68;44.34;101645.59;4965211;28;97254;-60
2023/09/08 10:30:03;;;;;;;3.37;3.07;;;;;;;29.77;43.63;101650.53;4964436;28;97395;-60
2023/09/08 10:32:29;;;;;;;3.40;3.10;;;;;;;29.84;43.95;101646.72;4961866;28;97278;-60
2023/09/08 10:34:57;;;;;;;3.20;2.90;;;;;;;29.91;44.09;101645.03;4965249;28;97325;-60
2023/09/08 10:37:25;;;;;;;3.10;2.60;;;;;;;29.97;43.90;101646.19;4961920;28;97663;-61
2023/09/08 10:39:51;;;;;;;3.00;2.80;;;;;;;29.99;43.72;101639.94;4969213;28;97314;-62
2023/09/08 10:42:16;;;;;;;3.10;2.90;;;;;;;30.01;43.39;101642.91;4967029;28;97530;-60
2023/09/08 10:44:44;;;;;;;2.87;2.67;;;;;;;30.13;42.90;101646.56;4969417;28;97123;-60
2023/09/08 10:47:09;;;;;;;2.90;2.70;;;;;;;30.22;42.45;101640.81;4964605;28;96868;-61
2023/09/08 10:49:35;;;;;;;3.00;2.80;;;;;;;30.31;41.93;101644.97;4964477;28;97441;-61
2023/09/08 10:52:12;;;;;;;2.50;2.40;;;;;;;30.35;40.34;101639.56;4965646;28;97334;-61
2023/09/08 10:54:47;;;;;;;3.40;3.10;;;;;;;30.47;41.33;101642.47;4972671;28;97776;-60
2023/09/08 10:57:14;;;;;;;2.60;2.47;;;;;;;30.52;41.99;101638.53;4969170;28;97448;-61
2023/09/08 10:59:44;;;;;;;4.00;2.33;;;;;;;30.63;42.13;101644.25;4967737;28;97216;-60
2023/09/08 11:02:54;;;;;;;2.33;2.23;;;;;;;30.73;41.05;101644.19;4967827;28;97481;-60
2023/09/08 11:05:21;;;;;;;2.63;2.43;;;;;;;30.87;41.38;101647.94;4967328;28;97559;-61
2023/09/08 11:07:49;;;;;;;2.67;2.33;;;;;;;30.96;40.73;101636.50;4967735;28;96859;-61
2023/09/08 11:10:14;;;;;;;3.20;2.50;;;;;;;31.04;40.68;101634.16;4966752;28;97431;-60
2023/09/08 11:12:40;;;;;;;3.03;2.50;;;;;;;31.05;40.63;101635.66;4967706;28;97332;-61
2023/09/08 11:15:08;;;;;;;2.73;2.53;;;;;;;31.11;40.75;101638.13;4962755;28;99172;-60
2023/09/08 11:17:35;;;;;;;2.70;2.50;;;;;;;31.19;40.17;101632.22;4968782;28;97157;-60
2023/09/08 11:20:07;;;;;;;2.77;2.57;;;;;;;31.30;40.40;101631.50;4972753;28;97275;-60